sensor_id;sensor_type;location;lat;lon;timestamp;P1;P2;P0
44871;PMS7003;30602;51.060;17.226;2023-11-22T00:03:46;56;41;22
44871;PMS7003;30602;51.060;17.226;2023-11-22T00:07:31;44;33;19
44871;PMS7003;30602;51.060;17.226;2023-11-22T00:11:31;51;41;24
44871;PMS7003;30602;51.060;17.226;2023-11-22T00:15:16;39;33;21
44871;PMS7003;30602;51.060;17.226;2023-11-22T00:18:46;38;33;18
44871;PMS7003;30602;51.060;17.226;2023-11-22T00:22:20;48;41;20
44871;PMS7003;30602;51.060;17.226;2023-11-22T00:26:06;47;36;21
44871;PMS7003;30602;51.060;17.226;2023-11-22T00:30:12;47;36;17
44871;PMS7003;30602;51.060;17.226;2023-11-22T00:33:47;44;37;19
44871;PMS7003;30602;51.060;17.226;2023-11-22T00:37:30;38;34;17
44871;PMS7003;30602;51.060;17.226;2023-11-22T00:41:17;38;34;20
44871;PMS7003;30602;51.060;17.226;2023-11-22T00:44:43;35;30;19
44871;PMS7003;30602;51.060;17.226;2023-11-22T00:48:26;47;38;21
44871;PMS7003;30602;51.060;17.226;2023-11-22T00:52:19;51;38;22
44871;PMS7003;30602;51.060;17.226;2023-11-22T00:55:42;44;36;20
44871;PMS7003;30602;51.060;17.226;2023-11-22T00:59:51;46;35;20
44871;PMS7003;30602;51.060;17.226;2023-11-22T01:03:41;46;36;22
44871;PMS7003;30602;51.060;17.226;2023-11-22T01:07:26;49;41;23
44871;PMS7003;30602;51.060;17.226;2023-11-22T01:11:13;39;37;21
44871;PMS7003;30602;51.060;17.226;2023-11-22T01:14:42;44;37;21
44871;PMS7003;30602;51.060;17.226;2023-11-22T01:18:10;42;37;22
44871;PMS7003;30602;51.060;17.226;2023-11-22T01:22:03;37;34;18
44871;PMS7003;30602;51.060;17.226;2023-11-22T01:26:02;40;35;22
44871;PMS7003;30602;51.060;17.226;2023-11-22T01:29:34;50;36;20
44871;PMS7003;30602;51.060;17.226;2023-11-22T01:33:32;32;27;17
44871;PMS7003;30602;51.060;17.226;2023-11-22T01:37:22;41;35;18
44871;PMS7003;30602;51.060;17.226;2023-11-22T01:41:18;41;36;20
44871;PMS7003;30602;51.060;17.226;2023-11-22T01:45:07;45;36;20
44871;PMS7003;30602;51.060;17.226;2023-11-22T01:49:14;50;39;20
44871;PMS7003;30602;51.060;17.226;2023-11-22T01:52:42;37;33;21
44871;PMS7003;30602;51.060;17.226;2023-11-22T01:56:28;43;37;20
44871;PMS7003;30602;51.060;17.226;2023-11-22T02:00:45;40;34;18
44871;PMS7003;30602;51.060;17.226;2023-11-22T02:04:34;38;31;20
44871;PMS7003;30602;51.060;17.226;2023-11-22T02:08:00;39;32;18
44871;PMS7003;30602;51.060;17.226;2023-11-22T02:11:33;40;33;18
44871;PMS7003;30602;51.060;17.226;2023-11-22T02:15:27;39;34;19
44871;PMS7003;30602;51.060;17.226;2023-11-22T02:19:25;41;34;18
44871;PMS7003;30602;51.060;17.226;2023-11-22T02:23:35;38;29;19
44871;PMS7003;30602;51.060;17.226;2023-11-22T02:27:30;38;32;18
44871;PMS7003;30602;51.060;17.226;2023-11-22T02:30:51;34;27;18
44871;PMS7003;30602;51.060;17.226;2023-11-22T02:34:44;43;33;20
44871;PMS7003;30602;51.060;17.226;2023-11-22T02:38:04;38;33;20
44871;PMS7003;30602;51.060;17.226;2023-11-22T02:42:03;40;32;17
44871;PMS7003;30602;51.060;17.226;2023-11-22T02:53:07;34;29;17
44871;PMS7003;30602;51.060;17.226;2023-11-22T02:57:18;41;30;16
44871;PMS7003;30602;51.060;17.226;2023-11-22T03:04:53;31;25;16
44871;PMS7003;30602;51.060;17.226;2023-11-22T03:08:37;36;28;17
44871;PMS7003;30602;51.060;17.226;2023-11-22T03:12:22;34;28;18
44871;PMS7003;30602;51.060;17.226;2023-11-22T03:15:51;34;29;17
44871;PMS7003;30602;51.060;17.226;2023-11-22T03:19:21;40;32;18
44871;PMS7003;30602;51.060;17.226;2023-11-22T03:23:20;36;27;15
44871;PMS7003;30602;51.060;17.226;2023-11-22T03:30:53;35;26;15
44871;PMS7003;30602;51.060;17.226;2023-11-22T03:34:32;37;31;17
44871;PMS7003;30602;51.060;17.226;2023-11-22T03:38:08;28;23;17
44871;PMS7003;30602;51.060;17.226;2023-11-22T03:41:41;35;28;17
44871;PMS7003;30602;51.060;17.226;2023-11-22T03:45:52;31;26;17
44871;PMS7003;30602;51.060;17.226;2023-11-22T03:49:18;28;21;13
44871;PMS7003;30602;51.060;17.226;2023-11-22T03:53:53;28;26;15
44871;PMS7003;30602;51.060;17.226;2023-11-22T03:57:45;26;23;15
44871;PMS7003;30602;51.060;17.226;2023-11-22T04:01:11;21;20;12
44871;PMS7003;30602;51.060;17.226;2023-11-22T04:05:02;25;18;13
44871;PMS7003;30602;51.060;17.226;2023-11-22T04:08:27;25;19;11
44871;PMS7003;30602;51.060;17.226;2023-11-22T04:11:50;21;19;13
44871;PMS7003;30602;51.060;17.226;2023-11-22T04:15:50;23;20;12
44871;PMS7003;30602;51.060;17.226;2023-11-22T04:19:37;28;24;13
44871;PMS7003;30602;51.060;17.226;2023-11-22T04:26:58;23;18;11
44871;PMS7003;30602;51.060;17.226;2023-11-22T04:30:32;22;13;9
44871;PMS7003;30602;51.060;17.226;2023-11-22T04:34:21;23;19;11
44871;PMS7003;30602;51.060;17.226;2023-11-22T04:38:07;21;17;10
44871;PMS7003;30602;51.060;17.226;2023-11-22T04:42:03;23;17;11
44871;PMS7003;30602;51.060;17.226;2023-11-22T04:45:45;18;15;10
44871;PMS7003;30602;51.060;17.226;2023-11-22T04:49:46;19;18;11
44871;PMS7003;30602;51.060;17.226;2023-11-22T04:53:31;17;12;9
44871;PMS7003;30602;51.060;17.226;2023-11-22T04:57:17;20;16;10
44871;PMS7003;30602;51.060;17.226;2023-11-22T05:01:18;14;12;8
44871;PMS7003;30602;51.060;17.226;2023-11-22T05:05:01;15;12;7
44871;PMS7003;30602;51.060;17.226;2023-11-22T05:08:49;17;15;10
44871;PMS7003;30602;51.060;17.226;2023-11-22T05:12:55;19;14;10
44871;PMS7003;30602;51.060;17.226;2023-11-22T05:16:46;14;11;8
44871;PMS7003;30602;51.060;17.226;2023-11-22T05:20:46;16;14;9
44871;PMS7003;30602;51.060;17.226;2023-11-22T05:24:22;13;11;7
44871;PMS7003;30602;51.060;17.226;2023-11-22T05:28:05;14;13;8
44871;PMS7003;30602;51.060;17.226;2023-11-22T05:31:50;17;15;10
44871;PMS7003;30602;51.060;17.226;2023-11-22T05:35:35;14;12;9
44871;PMS7003;30602;51.060;17.226;2023-11-22T05:43:05;18;15;10
44871;PMS7003;30602;51.060;17.226;2023-11-22T05:46:46;25;18;11
44871;PMS7003;30602;51.060;17.226;2023-11-22T05:50:25;16;14;10
44871;PMS7003;30602;51.060;17.226;2023-11-22T05:53:49;22;15;11
44871;PMS7003;30602;51.060;17.226;2023-11-22T05:57:11;22;17;10
44871;PMS7003;30602;51.060;17.226;2023-11-22T06:00:53;16;14;10
44871;PMS7003;30602;51.060;17.226;2023-11-22T06:04:42;24;22;13
44871;PMS7003;30602;51.060;17.226;2023-11-22T06:09:10;23;17;11
44871;PMS7003;30602;51.060;17.226;2023-11-22T06:12:59;21;18;11
44871;PMS7003;30602;51.060;17.226;2023-11-22T06:16:43;18;17;12
44871;PMS7003;30602;51.060;17.226;2023-11-22T06:20:13;25;20;12
44871;PMS7003;30602;51.060;17.226;2023-11-22T06:24:37;28;22;12
44871;PMS7003;30602;51.060;17.226;2023-11-22T06:28:04;24;19;12
44871;PMS7003;30602;51.060;17.226;2023-11-22T06:31:31;20;19;13
44871;PMS7003;30602;51.060;17.226;2023-11-22T06:34:56;25;20;13
44871;PMS7003;30602;51.060;17.226;2023-11-22T06:38:46;23;20;13
44871;PMS7003;30602;51.060;17.226;2023-11-22T06:42:33;22;19;11
44871;PMS7003;30602;51.060;17.226;2023-11-22T06:45:55;20;16;12
44871;PMS7003;30602;51.060;17.226;2023-11-22T06:49:21;25;20;13
44871;PMS7003;30602;51.060;17.226;2023-11-22T06:53:29;23;20;12
44871;PMS7003;30602;51.060;17.226;2023-11-22T06:56:54;18;17;11
44871;PMS7003;30602;51.060;17.226;2023-11-22T07:01:00;21;17;11
44871;PMS7003;30602;51.060;17.226;2023-11-22T07:04:27;24;21;13
44871;PMS7003;30602;51.060;17.226;2023-11-22T07:08:12;24;21;12
44871;PMS7003;30602;51.060;17.226;2023-11-22T07:11:41;27;21;12
44871;PMS7003;30602;51.060;17.226;2023-11-22T07:15:50;19;17;12
44871;PMS7003;30602;51.060;17.226;2023-11-22T07:19:32;17;14;11
44871;PMS7003;30602;51.060;17.226;2023-11-22T07:23:20;21;15;10
44871;PMS7003;30602;51.060;17.226;2023-11-22T07:26:56;21;18;13
44871;PMS7003;30602;51.060;17.226;2023-11-22T07:30:31;16;14;10
44871;PMS7003;30602;51.060;17.226;2023-11-22T07:33:53;18;16;12
44871;PMS7003;30602;51.060;17.226;2023-11-22T07:37:29;18;16;10
44871;PMS7003;30602;51.060;17.226;2023-11-22T07:41:14;26;20;11
44871;PMS7003;30602;51.060;17.226;2023-11-22T07:44:37;19;14;10
44871;PMS7003;30602;51.060;17.226;2023-11-22T07:48:30;23;15;11
44871;PMS7003;30602;51.060;17.226;2023-11-22T07:52:22;27;18;11
44871;PMS7003;30602;51.060;17.226;2023-11-22T07:56:23;18;15;10
44871;PMS7003;30602;51.060;17.226;2023-11-22T07:59:48;21;17;11
44871;PMS7003;30602;51.060;17.226;2023-11-22T08:03:40;19;17;11
44871;PMS7003;30602;51.060;17.226;2023-11-22T08:07:05;22;16;11
44871;PMS7003;30602;51.060;17.226;2023-11-22T08:11:01;23;19;11
44871;PMS7003;30602;51.060;17.226;2023-11-22T08:14:38;22;17;12
44871;PMS7003;30602;51.060;17.226;2023-11-22T08:18:09;23;20;12
44871;PMS7003;30602;51.060;17.226;2023-11-22T08:21:44;18;15;10
44871;PMS7003;30602;51.060;17.226;2023-11-22T08:25:29;11;10;8
44871;PMS7003;30602;51.060;17.226;2023-11-22T08:29:07;14;11;9
44871;PMS7003;30602;51.060;17.226;2023-11-22T08:32:51;15;15;11
44871;PMS7003;30602;51.060;17.226;2023-11-22T08:36:14;13;10;8
44871;PMS7003;30602;51.060;17.226;2023-11-22T08:40:01;23;14;10
44871;PMS7003;30602;51.060;17.226;2023-11-22T08:44:18;14;10;9
44871;PMS7003;30602;51.060;17.226;2023-11-22T08:48:15;15;12;8
44871;PMS7003;30602;51.060;17.226;2023-11-22T08:51:50;13;13;9
44871;PMS7003;30602;51.060;17.226;2023-11-22T08:55:40;22;17;10
44871;PMS7003;30602;51.060;17.226;2023-11-22T08:59:24;24;19;11
44871;PMS7003;30602;51.060;17.226;2023-11-22T09:03:02;20;17;10
44871;PMS7003;30602;51.060;17.226;2023-11-22T09:06:28;21;15;10
44871;PMS7003;30602;51.060;17.226;2023-11-22T09:14:33;28;21;12
44871;PMS7003;30602;51.060;17.226;2023-11-22T09:18:07;30;23;14
44871;PMS7003;30602;51.060;17.226;2023-11-22T09:21:52;19;16;11
44871;PMS7003;30602;51.060;17.226;2023-11-22T09:25:23;23;20;12
44871;PMS7003;30602;51.060;17.226;2023-11-22T09:28:45;24;20;11
44871;PMS7003;30602;51.060;17.226;2023-11-22T09:32:09;28;20;13
44871;PMS7003;30602;51.060;17.226;2023-11-22T09:35:37;23;19;12
44871;PMS7003;30602;51.060;17.226;2023-11-22T09:39:46;20;17;11
44871;PMS7003;30602;51.060;17.226;2023-11-22T09:43:13;22;19;11
44871;PMS7003;30602;51.060;17.226;2023-11-22T09:46:48;29;22;13
44871;PMS7003;30602;51.060;17.226;2023-11-22T09:50:49;24;17;11
44871;PMS7003;30602;51.060;17.226;2023-11-22T09:54:35;22;18;13
44871;PMS7003;30602;51.060;17.226;2023-11-22T09:58:47;23;20;12
44871;PMS7003;30602;51.060;17.226;2023-11-22T10:02:52;21;17;11
44871;PMS7003;30602;51.060;17.226;2023-11-22T10:06:32;21;17;13
44871;PMS7003;30602;51.060;17.226;2023-11-22T10:10:17;25;19;12
44871;PMS7003;30602;51.060;17.226;2023-11-22T10:14:18;22;18;12
44871;PMS7003;30602;51.060;17.226;2023-11-22T10:17:58;18;15;11
44871;PMS7003;30602;51.060;17.226;2023-11-22T10:21:28;26;22;12
44871;PMS7003;30602;51.060;17.226;2023-11-22T10:25:32;18;15;11
44871;PMS7003;30602;51.060;17.226;2023-11-22T10:29:15;25;20;13
44871;PMS7003;30602;51.060;17.226;2023-11-22T10:32:41;16;14;8
44871;PMS7003;30602;51.060;17.226;2023-11-22T10:36:21;22;21;13
44871;PMS7003;30602;51.060;17.226;2023-11-22T10:39:52;19;12;6
44871;PMS7003;30602;51.060;17.226;2023-11-22T10:43:34;17;15;10
44871;PMS7003;30602;51.060;17.226;2023-11-22T10:47:32;20;17;12
44871;PMS7003;30602;51.060;17.226;2023-11-22T10:51:32;27;22;13
44871;PMS7003;30602;51.060;17.226;2023-11-22T10:55:03;20;16;10
44871;PMS7003;30602;51.060;17.226;2023-11-22T10:59:10;19;17;11
44871;PMS7003;30602;51.060;17.226;2023-11-22T11:03:13;19;15;11
44871;PMS7003;30602;51.060;17.226;2023-11-22T11:06:48;20;18;11
44871;PMS7003;30602;51.060;17.226;2023-11-22T11:11:04;28;22;11
44871;PMS7003;30602;51.060;17.226;2023-11-22T11:15:12;25;20;12
44871;PMS7003;30602;51.060;17.226;2023-11-22T11:18:53;20;17;11
44871;PMS7003;30602;51.060;17.226;2023-11-22T11:22:37;17;13;7
44871;PMS7003;30602;51.060;17.226;2023-11-22T11:37:50;17;15;9
44871;PMS7003;30602;51.060;17.226;2023-11-22T11:41:51;14;12;7
44871;PMS7003;30602;51.060;17.226;2023-11-22T11:45:48;18;16;8
44871;PMS7003;30602;51.060;17.226;2023-11-22T11:49:54;12;9;8
44871;PMS7003;30602;51.060;17.226;2023-11-22T11:53:52;15;12;7
44871;PMS7003;30602;51.060;17.226;2023-11-22T11:57:15;14;12;9
44871;PMS7003;30602;51.060;17.226;2023-11-22T12:01:06;18;16;11
44871;PMS7003;30602;51.060;17.226;2023-11-22T12:04:32;15;12;9
44871;PMS7003;30602;51.060;17.226;2023-11-22T12:07:55;13;11;8
44871;PMS7003;30602;51.060;17.226;2023-11-22T12:11:29;16;11;9
44871;PMS7003;30602;51.060;17.226;2023-11-22T12:15:24;19;14;9
44871;PMS7003;30602;51.060;17.226;2023-11-22T12:19:01;16;14;10
44871;PMS7003;30602;51.060;17.226;2023-11-22T12:22:24;16;14;10
44871;PMS7003;30602;51.060;17.226;2023-11-22T12:26:52;22;19;14
44871;PMS7003;30602;51.060;17.226;2023-11-22T12:34:05;21;17;11
44871;PMS7003;30602;51.060;17.226;2023-11-22T12:37:51;25;21;14
44871;PMS7003;30602;51.060;17.226;2023-11-22T12:41:43;28;25;15
44871;PMS7003;30602;51.060;17.226;2023-11-22T12:45:17;21;17;12
44871;PMS7003;30602;51.060;17.226;2023-11-22T12:48:45;26;20;12
44871;PMS7003;30602;51.060;17.226;2023-11-22T12:52:16;26;21;11
44871;PMS7003;30602;51.060;17.226;2023-11-22T12:56:03;26;23;14
44871;PMS7003;30602;51.060;17.226;2023-11-22T13:04:00;23;19;13
44871;PMS7003;30602;51.060;17.226;2023-11-22T13:07:51;14;14;9
44871;PMS7003;30602;51.060;17.226;2023-11-22T13:11:15;15;13;9
44871;PMS7003;30602;51.060;17.226;2023-11-22T13:14:39;14;12;8
44871;PMS7003;30602;51.060;17.226;2023-11-22T13:18:15;18;15;10
44871;PMS7003;30602;51.060;17.226;2023-11-22T13:22:00;18;17;11
44871;PMS7003;30602;51.060;17.226;2023-11-22T13:25:43;23;18;10
44871;PMS7003;30602;51.060;17.226;2023-11-22T13:29:10;24;19;13
44871;PMS7003;30602;51.060;17.226;2023-11-22T13:32:34;23;19;12
44871;PMS7003;30602;51.060;17.226;2023-11-22T13:36:29;19;14;11
44871;PMS7003;30602;51.060;17.226;2023-11-22T13:40:36;33;21;13
44871;PMS7003;30602;51.060;17.226;2023-11-22T13:44:21;15;14;10
44871;PMS7003;30602;51.060;17.226;2023-11-22T13:52:20;16;13;9
44871;PMS7003;30602;51.060;17.226;2023-11-22T13:56:30;28;21;11
44871;PMS7003;30602;51.060;17.226;2023-11-22T14:01:00;31;22;13
44871;PMS7003;30602;51.060;17.226;2023-11-22T14:05:22;25;20;14
44871;PMS7003;30602;51.060;17.226;2023-11-22T14:09:14;20;15;10
44871;PMS7003;30602;51.060;17.226;2023-11-22T14:13:05;22;18;12
44871;PMS7003;30602;51.060;17.226;2023-11-22T14:16:55;15;14;11
44871;PMS7003;30602;51.060;17.226;2023-11-22T14:20:35;28;25;14
44871;PMS7003;30602;51.060;17.226;2023-11-22T14:24:14;21;18;14
44871;PMS7003;30602;51.060;17.226;2023-11-22T14:27:50;23;19;12
44871;PMS7003;30602;51.060;17.226;2023-11-22T14:31:18;24;20;14
44871;PMS7003;30602;51.060;17.226;2023-11-22T14:34:40;24;19;14
44871;PMS7003;30602;51.060;17.226;2023-11-22T14:38:48;28;20;13
44871;PMS7003;30602;51.060;17.226;2023-11-22T14:42:38;29;24;14
44871;PMS7003;30602;51.060;17.226;2023-11-22T14:46:24;38;29;18
44871;PMS7003;30602;51.060;17.226;2023-11-22T14:50:13;28;22;13
44871;PMS7003;30602;51.060;17.226;2023-11-22T14:53:38;26;20;13
44871;PMS7003;30602;51.060;17.226;2023-11-22T14:57:46;35;28;16
44871;PMS7003;30602;51.060;17.226;2023-11-22T15:01:12;31;26;17
44871;PMS7003;30602;51.060;17.226;2023-11-22T15:04:56;28;22;15
44871;PMS7003;30602;51.060;17.226;2023-11-22T15:08:48;30;26;18
44871;PMS7003;30602;51.060;17.226;2023-11-22T15:12:51;40;35;23
44871;PMS7003;30602;51.060;17.226;2023-11-22T15:17:02;68;51;31
44871;PMS7003;30602;51.060;17.226;2023-11-22T15:20:36;79;59;35
44871;PMS7003;30602;51.060;17.226;2023-11-22T15:24:17;69;52;30
44871;PMS7003;30602;51.060;17.226;2023-11-22T15:27:56;67;50;30
44871;PMS7003;30602;51.060;17.226;2023-11-22T15:31:33;71;54;33
44871;PMS7003;30602;51.060;17.226;2023-11-22T15:34:59;60;48;29
44871;PMS7003;30602;51.060;17.226;2023-11-22T15:38:48;65;51;30
44871;PMS7003;30602;51.060;17.226;2023-11-22T15:42:18;82;59;35
44871;PMS7003;30602;51.060;17.226;2023-11-22T15:45:46;106;81;46
44871;PMS7003;30602;51.060;17.226;2023-11-22T15:49:30;128;105;58
44871;PMS7003;30602;51.060;17.226;2023-11-22T15:53:14;85;64;40
44871;PMS7003;30602;51.060;17.226;2023-11-22T15:56:52;73;55;36
44871;PMS7003;30602;51.060;17.226;2023-11-22T16:00:34;65;49;32
44871;PMS7003;30602;51.060;17.226;2023-11-22T16:04:19;93;69;40
44871;PMS7003;30602;51.060;17.226;2023-11-22T16:08:09;76;57;34
44871;PMS7003;30602;51.060;17.226;2023-11-22T16:11:37;72;53;29
44871;PMS7003;30602;51.060;17.226;2023-11-22T16:15:33;57;46;27
44871;PMS7003;30602;51.060;17.226;2023-11-22T16:19:37;63;51;31
44871;PMS7003;30602;51.060;17.226;2023-11-22T16:23:07;56;44;28
44871;PMS7003;30602;51.060;17.226;2023-11-22T16:27:33;80;61;37
44871;PMS7003;30602;51.060;17.226;2023-11-22T16:31:35;70;53;31
44871;PMS7003;30602;51.060;17.226;2023-11-22T16:35:33;101;73;44
44871;PMS7003;30602;51.060;17.226;2023-11-22T16:39:45;147;115;60
44871;PMS7003;30602;51.060;17.226;2023-11-22T16:43:42;156;123;66
44871;PMS7003;30602;51.060;17.226;2023-11-22T16:48:10;130;100;53
44871;PMS7003;30602;51.060;17.226;2023-11-22T16:51:55;86;64;38
44871;PMS7003;30602;51.060;17.226;2023-11-22T16:55:52;88;66;39
44871;PMS7003;30602;51.060;17.226;2023-11-22T16:59:51;100;74;45
44871;PMS7003;30602;51.060;17.226;2023-11-22T17:03:33;124;95;45
44871;PMS7003;30602;51.060;17.226;2023-11-22T17:07:04;117;97;51
44871;PMS7003;30602;51.060;17.226;2023-11-22T17:10:57;89;65;38
44871;PMS7003;30602;51.060;17.226;2023-11-22T17:14:24;91;68;41
44871;PMS7003;30602;51.060;17.226;2023-11-22T17:18:38;91;67;39
44871;PMS7003;30602;51.060;17.226;2023-11-22T17:22:38;73;55;32
44871;PMS7003;30602;51.060;17.226;2023-11-22T17:26:27;75;57;34
44871;PMS7003;30602;51.060;17.226;2023-11-22T17:30:30;80;60;35
44871;PMS7003;30602;51.060;17.226;2023-11-22T17:34:24;87;67;39
44871;PMS7003;30602;51.060;17.226;2023-11-22T17:37:53;79;58;35
44871;PMS7003;30602;51.060;17.226;2023-11-22T17:42:06;66;52;31
44871;PMS7003;30602;51.060;17.226;2023-11-22T17:45:39;74;57;32
44871;PMS7003;30602;51.060;17.226;2023-11-22T17:49:22;97;74;40
44871;PMS7003;30602;51.060;17.226;2023-11-22T17:52:59;95;70;41
44871;PMS7003;30602;51.060;17.226;2023-11-22T17:57:07;102;78;45
44871;PMS7003;30602;51.060;17.226;2023-11-22T18:00:50;102;76;41
44871;PMS7003;30602;51.060;17.226;2023-11-22T18:04:43;79;61;34
44871;PMS7003;30602;51.060;17.226;2023-11-22T18:08:27;93;68;41
44871;PMS7003;30602;51.060;17.226;2023-11-22T18:12:31;98;73;42
44871;PMS7003;30602;51.060;17.226;2023-11-22T18:16:20;92;68;40
44871;PMS7003;30602;51.060;17.226;2023-11-22T18:20:39;83;63;36
44871;PMS7003;30602;51.060;17.226;2023-11-22T18:24:27;96;70;41
44871;PMS7003;30602;51.060;17.226;2023-11-22T18:28:55;98;73;42
44871;PMS7003;30602;51.060;17.226;2023-11-22T18:36:47;83;64;38
44871;PMS7003;30602;51.060;17.226;2023-11-22T18:40:55;79;60;34
44871;PMS7003;30602;51.060;17.226;2023-11-22T18:49:14;82;62;36
44871;PMS7003;30602;51.060;17.226;2023-11-22T18:57:07;83;60;36
44871;PMS7003;30602;51.060;17.226;2023-11-22T19:01:00;73;57;35
44871;PMS7003;30602;51.060;17.226;2023-11-22T19:04:32;64;50;29
44871;PMS7003;30602;51.060;17.226;2023-11-22T19:08:03;61;46;26
44871;PMS7003;30602;51.060;17.226;2023-11-22T19:12:07;58;45;28
44871;PMS7003;30602;51.060;17.226;2023-11-22T19:15:53;76;56;32
44871;PMS7003;30602;51.060;17.226;2023-11-22T19:19:40;58;42;24
44871;PMS7003;30602;51.060;17.226;2023-11-22T19:23:16;60;46;26
44871;PMS7003;30602;51.060;17.226;2023-11-22T19:26:55;56;44;27
44871;PMS7003;30602;51.060;17.226;2023-11-22T19:30:23;63;48;29
44871;PMS7003;30602;51.060;17.226;2023-11-22T19:34:07;65;49;31
44871;PMS7003;30602;51.060;17.226;2023-11-22T19:37:50;65;49;29
44871;PMS7003;30602;51.060;17.226;2023-11-22T19:41:47;67;49;29
44871;PMS7003;30602;51.060;17.226;2023-11-22T19:45:16;54;44;25
44871;PMS7003;30602;51.060;17.226;2023-11-22T19:48:45;47;39;22
44871;PMS7003;30602;51.060;17.226;2023-11-22T19:52:58;46;38;23
44871;PMS7003;30602;51.060;17.226;2023-11-22T19:56:26;48;40;26
44871;PMS7003;30602;51.060;17.226;2023-11-22T20:00:04;55;43;27
44871;PMS7003;30602;51.060;17.226;2023-11-22T20:03:30;46;41;24
44871;PMS7003;30602;51.060;17.226;2023-11-22T20:07:10;49;42;25
44871;PMS7003;30602;51.060;17.226;2023-11-22T20:10:34;49;44;27
44871;PMS7003;30602;51.060;17.226;2023-11-22T20:14:37;47;39;22
44871;PMS7003;30602;51.060;17.226;2023-11-22T20:18:19;50;39;23
44871;PMS7003;30602;51.060;17.226;2023-11-22T20:21:47;61;44;25
44871;PMS7003;30602;51.060;17.226;2023-11-22T20:26:14;60;48;27
44871;PMS7003;30602;51.060;17.226;2023-11-22T20:30:11;56;43;26
44871;PMS7003;30602;51.060;17.226;2023-11-22T20:33:59;45;39;24
44871;PMS7003;30602;51.060;17.226;2023-11-22T20:37:37;42;38;21
44871;PMS7003;30602;51.060;17.226;2023-11-22T20:41:33;41;38;23
44871;PMS7003;30602;51.060;17.226;2023-11-22T20:45:41;44;36;19
44871;PMS7003;30602;51.060;17.226;2023-11-22T20:49:10;57;43;24
44871;PMS7003;30602;51.060;17.226;2023-11-22T20:52:51;46;36;20
44871;PMS7003;30602;51.060;17.226;2023-11-22T20:56:21;50;41;23
44871;PMS7003;30602;51.060;17.226;2023-11-22T21:04:05;57;43;25
44871;PMS7003;30602;51.060;17.226;2023-11-22T21:07:52;47;39;21
44871;PMS7003;30602;51.060;17.226;2023-11-22T21:11:28;54;39;25
44871;PMS7003;30602;51.060;17.226;2023-11-22T21:15:00;55;43;26
44871;PMS7003;30602;51.060;17.226;2023-11-22T21:18:28;57;44;23
44871;PMS7003;30602;51.060;17.226;2023-11-22T21:22:14;47;38;22
44871;PMS7003;30602;51.060;17.226;2023-11-22T21:30:08;45;41;25
44871;PMS7003;30602;51.060;17.226;2023-11-22T21:33:58;44;38;22
44871;PMS7003;30602;51.060;17.226;2023-11-22T21:37:19;51;41;21
44871;PMS7003;30602;51.060;17.226;2023-11-22T21:41:05;45;38;24
44871;PMS7003;30602;51.060;17.226;2023-11-22T21:50:03;46;35;21
44871;PMS7003;30602;51.060;17.226;2023-11-22T21:53:51;46;38;23
44871;PMS7003;30602;51.060;17.226;2023-11-22T21:57:38;51;36;20
44871;PMS7003;30602;51.060;17.226;2023-11-22T22:01:28;40;31;18
44871;PMS7003;30602;51.060;17.226;2023-11-22T22:05:49;40;28;16
44871;PMS7003;30602;51.060;17.226;2023-11-22T22:09:27;34;28;19
44871;PMS7003;30602;51.060;17.226;2023-11-22T22:12:57;45;36;20
44871;PMS7003;30602;51.060;17.226;2023-11-22T22:16:38;82;61;36
44871;PMS7003;30602;51.060;17.226;2023-11-22T22:20:58;84;63;39
44871;PMS7003;30602;51.060;17.226;2023-11-22T22:24:48;81;61;36
44871;PMS7003;30602;51.060;17.226;2023-11-22T22:28:37;84;63;35
44871;PMS7003;30602;51.060;17.226;2023-11-22T22:32:02;91;70;38
44871;PMS7003;30602;51.060;17.226;2023-11-22T22:35:27;92;64;37
44871;PMS7003;30602;51.060;17.226;2023-11-22T22:39:09;73;54;31
44871;PMS7003;30602;51.060;17.226;2023-11-22T22:43:14;80;59;35
44871;PMS7003;30602;51.060;17.226;2023-11-22T22:47:25;80;58;33
44871;PMS7003;30602;51.060;17.226;2023-11-22T22:50:59;61;48;28
44871;PMS7003;30602;51.060;17.226;2023-11-22T22:54:55;59;46;27
44871;PMS7003;30602;51.060;17.226;2023-11-22T23:02:36;56;41;25
44871;PMS7003;30602;51.060;17.226;2023-11-22T23:06:32;41;32;18
44871;PMS7003;30602;51.060;17.226;2023-11-22T23:10:21;48;37;19
44871;PMS7003;30602;51.060;17.226;2023-11-22T23:14:09;39;33;19
44871;PMS7003;30602;51.060;17.226;2023-11-22T23:18:00;43;35;17
44871;PMS7003;30602;51.060;17.226;2023-11-22T23:21:23;37;30;19
44871;PMS7003;30602;51.060;17.226;2023-11-22T23:25:16;32;27;17
44871;PMS7003;30602;51.060;17.226;2023-11-22T23:29:01;37;31;18
44871;PMS7003;30602;51.060;17.226;2023-11-22T23:32:29;44;38;20
44871;PMS7003;30602;51.060;17.226;2023-11-22T23:36:07;37;31;18
44871;PMS7003;30602;51.060;17.226;2023-11-22T23:40:06;42;33;18
44871;PMS7003;30602;51.060;17.226;2023-11-22T23:44:06;39;32;19
44871;PMS7003;30602;51.060;17.226;2023-11-22T23:48:25;48;36;21
44871;PMS7003;30602;51.060;17.226;2023-11-22T23:52:45;35;32;18
44871;PMS7003;30602;51.060;17.226;2023-11-22T23:56:14;40;31;18
